LKK weather

Kulik Lake Airport
Kulik Lake, Alaska, United States

Public forecast

Using degrees Fahrenheit for public forecast. Weather courtesy of forecast.io.

Closest aviation weather report (METAR) to Kulik Lake Airport

Closest report is Igiugig Airport, 31.6 nm (58.5 km) NW. Retrieved 2020/08/08 22:56 UTC (13 minutes ago):

PAIG 082256Z AUTO 24003KT 10SM OVC045 15/07 A2979 RMK AO2 SLP097 T01500067

Closest aviation forecast (TAF) to Kulik Lake Airport

Closest forecast is Iliamna Airport, 46.8 nm (86.7 km) N. Retrieved 2020/08/08 18:42 UTC (4 hours ago):

TAF PAIL 081740Z 0818/0918 22007KT P6SM VCSH SCT025 OVC050 TEMPO 0818/0820 BKN025 FM090400 26005KT P6SM SCT025 BKN060